sensor_id;sensor_type;location;lat;lon;timestamp;temperature;humidity
26964;DHT22;14521;48.148;-1.656;2023-02-20T00:00:43;18.40;80.90
26964;DHT22;14521;48.148;-1.656;2023-02-20T00:04:05;18.40;80.80
26964;DHT22;14521;48.148;-1.656;2023-02-20T00:07:27;18.30;80.70
26964;DHT22;14521;48.148;-1.656;2023-02-20T00:10:49;18.40;80.70
26964;DHT22;14521;48.148;-1.656;2023-02-20T00:14:12;18.30;80.70
26964;DHT22;14521;48.148;-1.656;2023-02-20T00:17:35;18.30;80.70
26964;DHT22;14521;48.148;-1.656;2023-02-20T00:20:57;18.30;80.60
26964;DHT22;14521;48.148;-1.656;2023-02-20T00:24:19;18.30;80.40
26964;DHT22;14521;48.148;-1.656;2023-02-20T00:27:42;18.30;80.40
26964;DHT22;14521;48.148;-1.656;2023-02-20T00:31:06;18.30;80.40
26964;DHT22;14521;48.148;-1.656;2023-02-20T00:34:30;18.30;80.20
26964;DHT22;14521;48.148;-1.656;2023-02-20T00:37:54;18.30;80.20
26964;DHT22;14521;48.148;-1.656;2023-02-20T00:41:16;18.30;80.20
26964;DHT22;14521;48.148;-1.656;2023-02-20T00:44:38;18.30;80.20
26964;DHT22;14521;48.148;-1.656;2023-02-20T00:48:01;18.20;80.00
26964;DHT22;14521;48.148;-1.656;2023-02-20T00:51:24;18.30;80.10
26964;DHT22;14521;48.148;-1.656;2023-02-20T00:54:47;18.30;80.00
26964;DHT22;14521;48.148;-1.656;2023-02-20T00:58:09;18.20;79.80
26964;DHT22;14521;48.148;-1.656;2023-02-20T01:01:31;18.20;79.90
26964;DHT22;14521;48.148;-1.656;2023-02-20T01:04:54;18.20;79.90
26964;DHT22;14521;48.148;-1.656;2023-02-20T01:08:17;18.20;79.80
26964;DHT22;14521;48.148;-1.656;2023-02-20T01:11:43;18.20;79.90
26964;DHT22;14521;48.148;-1.656;2023-02-20T01:15:08;18.20;79.70
26964;DHT22;14521;48.148;-1.656;2023-02-20T01:18:32;18.20;79.80
26964;DHT22;14521;48.148;-1.656;2023-02-20T01:21:54;18.20;79.80
26964;DHT22;14521;48.148;-1.656;2023-02-20T01:25:16;18.20;79.60
26964;DHT22;14521;48.148;-1.656;2023-02-20T01:28:41;18.20;79.50
26964;DHT22;14521;48.148;-1.656;2023-02-20T01:32:04;18.20;79.70
26964;DHT22;14521;48.148;-1.656;2023-02-20T01:35:26;18.20;79.60
26964;DHT22;14521;48.148;-1.656;2023-02-20T01:38:53;18.20;79.40
26964;DHT22;14521;48.148;-1.656;2023-02-20T01:42:22;18.20;79.40
26964;DHT22;14521;48.148;-1.656;2023-02-20T01:45:48;18.20;79.20
26964;DHT22;14521;48.148;-1.656;2023-02-20T01:49:15;18.20;79.20
26964;DHT22;14521;48.148;-1.656;2023-02-20T01:52:39;18.20;79.40
26964;DHT22;14521;48.148;-1.656;2023-02-20T01:56:06;18.10;79.40
26964;DHT22;14521;48.148;-1.656;2023-02-20T01:59:33;18.20;79.30
26964;DHT22;14521;48.148;-1.656;2023-02-20T02:03:00;18.10;79.20
26964;DHT22;14521;48.148;-1.656;2023-02-20T02:06:25;18.10;79.10
26964;DHT22;14521;48.148;-1.656;2023-02-20T02:09:56;18.10;79.00
26964;DHT22;14521;48.148;-1.656;2023-02-20T02:13:22;18.10;79.00
26964;DHT22;14521;48.148;-1.656;2023-02-20T02:17:06;18.10;78.80
26964;DHT22;14521;48.148;-1.656;2023-02-20T02:40:07;18.10;78.50
26964;DHT22;14521;48.148;-1.656;2023-02-20T02:43:44;18.10;78.40
26964;DHT22;14521;48.148;-1.656;2023-02-20T02:47:53;18.00;78.50
26964;DHT22;14521;48.148;-1.656;2023-02-20T02:51:27;18.10;78.40
26964;DHT22;14521;48.148;-1.656;2023-02-20T02:54:50;18.10;78.30
26964;DHT22;14521;48.148;-1.656;2023-02-20T02:58:14;18.00;78.70
26964;DHT22;14521;48.148;-1.656;2023-02-20T03:01:45;18.00;78.00
26964;DHT22;14521;48.148;-1.656;2023-02-20T03:05:09;18.00;78.00
26964;DHT22;14521;48.148;-1.656;2023-02-20T03:12:02;17.90;78.00
26964;DHT22;14521;48.148;-1.656;2023-02-20T03:15:33;17.80;77.90
26964;DHT22;14521;48.148;-1.656;2023-02-20T03:19:01;17.90;77.90
26964;DHT22;14521;48.148;-1.656;2023-02-20T03:26:12;17.90;77.80
26964;DHT22;14521;48.148;-1.656;2023-02-20T03:29:41;17.80;77.60
26964;DHT22;14521;48.148;-1.656;2023-02-20T03:37:20;17.80;77.60
26964;DHT22;14521;48.148;-1.656;2023-02-20T03:41:02;17.80;77.50
26964;DHT22;14521;48.148;-1.656;2023-02-20T03:44:44;17.80;77.40
26964;DHT22;14521;48.148;-1.656;2023-02-20T03:51:46;17.80;77.30
26964;DHT22;14521;48.148;-1.656;2023-02-20T03:55:32;17.70;77.30
26964;DHT22;14521;48.148;-1.656;2023-02-20T03:59:16;17.70;77.10
26964;DHT22;14521;48.148;-1.656;2023-02-20T04:02:41;17.70;77.20
26964;DHT22;14521;48.148;-1.656;2023-02-20T04:06:07;17.70;77.10
26964;DHT22;14521;48.148;-1.656;2023-02-20T04:09:32;17.70;77.10
26964;DHT22;14521;48.148;-1.656;2023-02-20T04:12:56;17.70;77.00
26964;DHT22;14521;48.148;-1.656;2023-02-20T04:16:21;17.70;77.00
26964;DHT22;14521;48.148;-1.656;2023-02-20T04:19:44;17.70;76.90
26964;DHT22;14521;48.148;-1.656;2023-02-20T04:23:16;17.60;76.90
26964;DHT22;14521;48.148;-1.656;2023-02-20T04:26:39;17.60;76.90
26964;DHT22;14521;48.148;-1.656;2023-02-20T04:30:03;17.60;76.90
26964;DHT22;14521;48.148;-1.656;2023-02-20T04:33:25;17.60;76.90
26964;DHT22;14521;48.148;-1.656;2023-02-20T04:37:14;17.60;76.80
26964;DHT22;14521;48.148;-1.656;2023-02-20T04:40:37;17.60;76.70
26964;DHT22;14521;48.148;-1.656;2023-02-20T04:44:00;17.60;76.70
26964;DHT22;14521;48.148;-1.656;2023-02-20T04:47:44;17.60;76.70
26964;DHT22;14521;48.148;-1.656;2023-02-20T04:51:07;17.60;76.60
26964;DHT22;14521;48.148;-1.656;2023-02-20T04:54:29;17.60;76.60
26964;DHT22;14521;48.148;-1.656;2023-02-20T04:57:52;17.60;76.50
26964;DHT22;14521;48.148;-1.656;2023-02-20T05:01:15;17.50;76.50
26964;DHT22;14521;48.148;-1.656;2023-02-20T05:04:37;17.50;76.40
26964;DHT22;14521;48.148;-1.656;2023-02-20T05:08:03;17.50;76.40
26964;DHT22;14521;48.148;-1.656;2023-02-20T05:11:25;17.60;76.40
26964;DHT22;14521;48.148;-1.656;2023-02-20T05:14:47;17.70;76.40
26964;DHT22;14521;48.148;-1.656;2023-02-20T05:18:10;17.70;76.10
26964;DHT22;14521;48.148;-1.656;2023-02-20T05:21:32;17.80;76.00
26964;DHT22;14521;48.148;-1.656;2023-02-20T05:25:14;17.80;75.90
26964;DHT22;14521;48.148;-1.656;2023-02-20T05:28:37;17.80;75.80
26964;DHT22;14521;48.148;-1.656;2023-02-20T05:32:01;17.90;75.70
26964;DHT22;14521;48.148;-1.656;2023-02-20T05:35:23;17.90;75.50
26964;DHT22;14521;48.148;-1.656;2023-02-20T05:38:45;18.00;75.50
26964;DHT22;14521;48.148;-1.656;2023-02-20T05:42:10;18.00;75.40
26964;DHT22;14521;48.148;-1.656;2023-02-20T05:45:32;18.00;75.30
26964;DHT22;14521;48.148;-1.656;2023-02-20T05:48:54;18.10;75.30
26964;DHT22;14521;48.148;-1.656;2023-02-20T05:52:17;18.10;75.10
26964;DHT22;14521;48.148;-1.656;2023-02-20T05:55:39;18.20;75.20
26964;DHT22;14521;48.148;-1.656;2023-02-20T05:59:01;18.20;75.10
26964;DHT22;14521;48.148;-1.656;2023-02-20T06:02:24;18.20;75.00
26964;DHT22;14521;48.148;-1.656;2023-02-20T06:05:46;18.20;75.10
26964;DHT22;14521;48.148;-1.656;2023-02-20T06:09:10;18.20;74.80
26964;DHT22;14521;48.148;-1.656;2023-02-20T06:12:32;18.30;74.90
26964;DHT22;14521;48.148;-1.656;2023-02-20T06:15:54;18.30;74.80
26964;DHT22;14521;48.148;-1.656;2023-02-20T06:19:19;18.30;74.80
26964;DHT22;14521;48.148;-1.656;2023-02-20T06:22:43;18.30;74.80
26964;DHT22;14521;48.148;-1.656;2023-02-20T06:26:06;18.30;74.80
26964;DHT22;14521;48.148;-1.656;2023-02-20T06:29:28;18.30;74.70
26964;DHT22;14521;48.148;-1.656;2023-02-20T06:32:51;18.30;74.60
26964;DHT22;14521;48.148;-1.656;2023-02-20T06:36:25;18.30;74.60
26964;DHT22;14521;48.148;-1.656;2023-02-20T06:39:48;18.40;74.70
26964;DHT22;14521;48.148;-1.656;2023-02-20T06:43:10;18.40;74.70
26964;DHT22;14521;48.148;-1.656;2023-02-20T06:46:32;18.40;74.70
26964;DHT22;14521;48.148;-1.656;2023-02-20T06:49:54;18.40;74.60
26964;DHT22;14521;48.148;-1.656;2023-02-20T06:53:17;18.40;74.70
26964;DHT22;14521;48.148;-1.656;2023-02-20T06:56:39;18.40;74.70
26964;DHT22;14521;48.148;-1.656;2023-02-20T07:00:04;18.40;74.60
26964;DHT22;14521;48.148;-1.656;2023-02-20T07:03:26;18.40;74.40
26964;DHT22;14521;48.148;-1.656;2023-02-20T07:06:49;18.40;74.40
26964;DHT22;14521;48.148;-1.656;2023-02-20T07:10:11;18.40;74.40
26964;DHT22;14521;48.148;-1.656;2023-02-20T07:13:33;18.40;74.40
26964;DHT22;14521;48.148;-1.656;2023-02-20T07:16:56;18.40;74.40
26964;DHT22;14521;48.148;-1.656;2023-02-20T07:20:18;18.40;74.20
26964;DHT22;14521;48.148;-1.656;2023-02-20T07:23:40;18.40;74.20
26964;DHT22;14521;48.148;-1.656;2023-02-20T07:27:03;18.40;74.30
26964;DHT22;14521;48.148;-1.656;2023-02-20T07:30:25;18.40;74.30
26964;DHT22;14521;48.148;-1.656;2023-02-20T07:33:47;18.40;74.20
26964;DHT22;14521;48.148;-1.656;2023-02-20T07:37:10;18.40;74.30
26964;DHT22;14521;48.148;-1.656;2023-02-20T07:40:32;18.40;74.20
26964;DHT22;14521;48.148;-1.656;2023-02-20T07:43:55;18.40;74.20
26964;DHT22;14521;48.148;-1.656;2023-02-20T07:47:17;18.40;74.20
26964;DHT22;14521;48.148;-1.656;2023-02-20T07:50:40;18.40;74.40
26964;DHT22;14521;48.148;-1.656;2023-02-20T07:54:02;18.40;74.30
26964;DHT22;14521;48.148;-1.656;2023-02-20T07:57:24;18.30;74.30
26964;DHT22;14521;48.148;-1.656;2023-02-20T08:00:48;18.40;74.30
26964;DHT22;14521;48.148;-1.656;2023-02-20T08:04:12;18.40;74.30
26964;DHT22;14521;48.148;-1.656;2023-02-20T08:07:35;18.40;74.40
26964;DHT22;14521;48.148;-1.656;2023-02-20T08:10:57;18.40;74.40
26964;DHT22;14521;48.148;-1.656;2023-02-20T08:14:30;18.30;74.30
26964;DHT22;14521;48.148;-1.656;2023-02-20T08:17:52;18.30;74.40
26964;DHT22;14521;48.148;-1.656;2023-02-20T08:21:15;18.30;74.10
26964;DHT22;14521;48.148;-1.656;2023-02-20T08:24:37;18.30;74.30
26964;DHT22;14521;48.148;-1.656;2023-02-20T08:27:59;18.30;74.10
26964;DHT22;14521;48.148;-1.656;2023-02-20T08:31:21;18.20;74.00
26964;DHT22;14521;48.148;-1.656;2023-02-20T08:34:54;18.30;73.90
26964;DHT22;14521;48.148;-1.656;2023-02-20T08:38:45;18.30;74.00
26964;DHT22;14521;48.148;-1.656;2023-02-20T08:42:07;18.20;73.90
26964;DHT22;14521;48.148;-1.656;2023-02-20T08:45:30;18.20;73.80
26964;DHT22;14521;48.148;-1.656;2023-02-20T08:48:52;18.20;73.90
26964;DHT22;14521;48.148;-1.656;2023-02-20T08:52:15;18.20;74.00
26964;DHT22;14521;48.148;-1.656;2023-02-20T08:55:37;18.20;74.00
26964;DHT22;14521;48.148;-1.656;2023-02-20T08:58:59;18.20;74.10
26964;DHT22;14521;48.148;-1.656;2023-02-20T09:02:23;18.20;74.10
26964;DHT22;14521;48.148;-1.656;2023-02-20T09:05:47;18.20;74.30
26964;DHT22;14521;48.148;-1.656;2023-02-20T09:09:09;18.20;74.10
26964;DHT22;14521;48.148;-1.656;2023-02-20T09:12:32;18.10;74.10
26964;DHT22;14521;48.148;-1.656;2023-02-20T09:15:54;18.20;75.10
26964;DHT22;14521;48.148;-1.656;2023-02-20T09:19:17;18.20;74.30
26964;DHT22;14521;48.148;-1.656;2023-02-20T09:22:39;18.10;74.70
26964;DHT22;14521;48.148;-1.656;2023-02-20T09:26:03;18.10;75.10
26964;DHT22;14521;48.148;-1.656;2023-02-20T09:29:25;18.10;74.30
26964;DHT22;14521;48.148;-1.656;2023-02-20T09:32:48;18.00;75.60
26964;DHT22;14521;48.148;-1.656;2023-02-20T09:36:11;18.10;75.90
26964;DHT22;14521;48.148;-1.656;2023-02-20T09:39:34;18.10;76.10
26964;DHT22;14521;48.148;-1.656;2023-02-20T09:46:22;18.10;76.20
26964;DHT22;14521;48.148;-1.656;2023-02-20T09:49:45;18.10;76.40
26964;DHT22;14521;48.148;-1.656;2023-02-20T09:53:29;18.10;76.40
26964;DHT22;14521;48.148;-1.656;2023-02-20T09:56:56;18.10;76.80
26964;DHT22;14521;48.148;-1.656;2023-02-20T10:00:46;18.10;77.10
26964;DHT22;14521;48.148;-1.656;2023-02-20T10:04:13;18.10;77.80
26964;DHT22;14521;48.148;-1.656;2023-02-20T10:07:38;18.20;78.10
26964;DHT22;14521;48.148;-1.656;2023-02-20T10:11:05;18.20;78.20
26964;DHT22;14521;48.148;-1.656;2023-02-20T10:18:32;18.20;78.20
26964;DHT22;14521;48.148;-1.656;2023-02-20T10:25:34;18.20;78.10
26964;DHT22;14521;48.148;-1.656;2023-02-20T10:29:08;18.20;78.10
26964;DHT22;14521;48.148;-1.656;2023-02-20T10:32:47;18.20;78.20
26964;DHT22;14521;48.148;-1.656;2023-02-20T10:40:32;18.20;78.20
26964;DHT22;14521;48.148;-1.656;2023-02-20T10:47:32;18.20;78.40
26964;DHT22;14521;48.148;-1.656;2023-02-20T10:54:41;18.20;78.40
26964;DHT22;14521;48.148;-1.656;2023-02-20T10:58:14;18.20;78.90
26964;DHT22;14521;48.148;-1.656;2023-02-20T11:01:39;18.20;79.20
26964;DHT22;14521;48.148;-1.656;2023-02-20T11:05:15;18.20;79.60
26964;DHT22;14521;48.148;-1.656;2023-02-20T11:08:38;18.20;79.40
26964;DHT22;14521;48.148;-1.656;2023-02-20T11:12:00;18.20;79.40
26964;DHT22;14521;48.148;-1.656;2023-02-20T11:15:25;18.20;79.70
26964;DHT22;14521;48.148;-1.656;2023-02-20T11:19:07;18.20;79.70
26964;DHT22;14521;48.148;-1.656;2023-02-20T11:22:59;18.20;79.80
26964;DHT22;14521;48.148;-1.656;2023-02-20T11:26:30;18.20;79.60
26964;DHT22;14521;48.148;-1.656;2023-02-20T11:30:15;18.20;80.00
26964;DHT22;14521;48.148;-1.656;2023-02-20T11:33:44;18.20;80.70
26964;DHT22;14521;48.148;-1.656;2023-02-20T11:37:11;18.20;79.40
26964;DHT22;14521;48.148;-1.656;2023-02-20T11:40:34;18.20;79.40
26964;DHT22;14521;48.148;-1.656;2023-02-20T11:44:23;18.20;79.40
26964;DHT22;14521;48.148;-1.656;2023-02-20T11:51:39;18.20;80.00
26964;DHT22;14521;48.148;-1.656;2023-02-20T11:55:19;18.20;79.60
26964;DHT22;14521;48.148;-1.656;2023-02-20T11:58:43;18.20;79.50
26964;DHT22;14521;48.148;-1.656;2023-02-20T12:05:42;18.20;79.50
26964;DHT22;14521;48.148;-1.656;2023-02-20T12:09:09;18.20;79.60
26964;DHT22;14521;48.148;-1.656;2023-02-20T12:12:32;18.10;79.60
26964;DHT22;14521;48.148;-1.656;2023-02-20T12:16:04;18.10;79.70
26964;DHT22;14521;48.148;-1.656;2023-02-20T12:27:01;18.10;79.60
26964;DHT22;14521;48.148;-1.656;2023-02-20T12:33:53;18.10;79.70
26964;DHT22;14521;48.148;-1.656;2023-02-20T12:37:30;18.10;80.80
26964;DHT22;14521;48.148;-1.656;2023-02-20T12:48:16;18.10;82.20
26964;DHT22;14521;48.148;-1.656;2023-02-20T12:51:49;18.10;82.50
26964;DHT22;14521;48.148;-1.656;2023-02-20T12:55:19;18.10;82.30
26964;DHT22;14521;48.148;-1.656;2023-02-20T13:02:47;18.20;82.60
26964;DHT22;14521;48.148;-1.656;2023-02-20T13:06:13;18.10;82.50
26964;DHT22;14521;48.148;-1.656;2023-02-20T13:09:44;18.10;82.60
26964;DHT22;14521;48.148;-1.656;2023-02-20T13:13:09;18.10;82.40
26964;DHT22;14521;48.148;-1.656;2023-02-20T13:20:17;18.20;82.00
26964;DHT22;14521;48.148;-1.656;2023-02-20T13:23:40;18.10;81.90
26964;DHT22;14521;48.148;-1.656;2023-02-20T13:27:05;18.10;82.00
26964;DHT22;14521;48.148;-1.656;2023-02-20T13:30:28;18.10;81.70
26964;DHT22;14521;48.148;-1.656;2023-02-20T13:41:05;18.10;81.50
26964;DHT22;14521;48.148;-1.656;2023-02-20T13:52:41;18.10;81.30
26964;DHT22;14521;48.148;-1.656;2023-02-20T13:56:04;18.00;81.30
26964;DHT22;14521;48.148;-1.656;2023-02-20T13:59:27;18.10;81.20
26964;DHT22;14521;48.148;-1.656;2023-02-20T14:02:50;18.10;81.00
26964;DHT22;14521;48.148;-1.656;2023-02-20T14:06:17;18.10;81.00
26964;DHT22;14521;48.148;-1.656;2023-02-20T14:09:40;18.10;81.00
26964;DHT22;14521;48.148;-1.656;2023-02-20T14:13:17;18.10;80.90
26964;DHT22;14521;48.148;-1.656;2023-02-20T14:16:48;18.10;81.00
26964;DHT22;14521;48.148;-1.656;2023-02-20T14:20:35;18.10;80.90
26964;DHT22;14521;48.148;-1.656;2023-02-20T14:24:12;18.10;81.00
26964;DHT22;14521;48.148;-1.656;2023-02-20T14:27:39;18.10;80.90
26964;DHT22;14521;48.148;-1.656;2023-02-20T14:31:20;18.10;80.70
26964;DHT22;14521;48.148;-1.656;2023-02-20T14:38:38;18.10;80.70
26964;DHT22;14521;48.148;-1.656;2023-02-20T14:42:05;18.10;80.80
26964;DHT22;14521;48.148;-1.656;2023-02-20T14:45:34;18.10;80.80
26964;DHT22;14521;48.148;-1.656;2023-02-20T14:49:14;18.10;80.70
26964;DHT22;14521;48.148;-1.656;2023-02-20T14:52:36;18.10;80.70
26964;DHT22;14521;48.148;-1.656;2023-02-20T14:59:35;18.10;80.70
26964;DHT22;14521;48.148;-1.656;2023-02-20T15:03:00;18.10;80.80
26964;DHT22;14521;48.148;-1.656;2023-02-20T15:06:29;18.00;80.70
26964;DHT22;14521;48.148;-1.656;2023-02-20T15:09:54;18.10;80.70
26964;DHT22;14521;48.148;-1.656;2023-02-20T15:13:23;18.10;80.60
26964;DHT22;14521;48.148;-1.656;2023-02-20T15:16:47;18.10;80.60
26964;DHT22;14521;48.148;-1.656;2023-02-20T15:24:10;18.10;80.60
26964;DHT22;14521;48.148;-1.656;2023-02-20T15:27:32;18.00;80.50
26964;DHT22;14521;48.148;-1.656;2023-02-20T15:34:33;18.10;81.00
26964;DHT22;14521;48.148;-1.656;2023-02-20T15:37:59;18.10;81.00
26964;DHT22;14521;48.148;-1.656;2023-02-20T15:41:22;18.20;81.20
26964;DHT22;14521;48.148;-1.656;2023-02-20T15:44:45;18.20;81.30
26964;DHT22;14521;48.148;-1.656;2023-02-20T15:48:07;18.20;82.10
26964;DHT22;14521;48.148;-1.656;2023-02-20T15:51:37;18.30;81.40
26964;DHT22;14521;48.148;-1.656;2023-02-20T15:55:00;18.30;81.50
26964;DHT22;14521;48.148;-1.656;2023-02-20T16:01:53;18.40;81.40
26964;DHT22;14521;48.148;-1.656;2023-02-20T16:05:16;18.40;81.60
26964;DHT22;14521;48.148;-1.656;2023-02-20T16:08:38;18.40;81.90
26964;DHT22;14521;48.148;-1.656;2023-02-20T16:12:01;18.40;81.90
26964;DHT22;14521;48.148;-1.656;2023-02-20T16:15:23;18.30;81.90
26964;DHT22;14521;48.148;-1.656;2023-02-20T16:18:48;18.30;82.00
26964;DHT22;14521;48.148;-1.656;2023-02-20T16:22:12;18.30;82.30
26964;DHT22;14521;48.148;-1.656;2023-02-20T16:25:34;18.40;82.10
26964;DHT22;14521;48.148;-1.656;2023-02-20T16:28:59;18.40;82.20
26964;DHT22;14521;48.148;-1.656;2023-02-20T16:32:26;18.40;82.10
26964;DHT22;14521;48.148;-1.656;2023-02-20T16:35:50;18.50;82.00
26964;DHT22;14521;48.148;-1.656;2023-02-20T16:39:16;18.50;82.00
26964;DHT22;14521;48.148;-1.656;2023-02-20T16:42:47;18.50;82.20
26964;DHT22;14521;48.148;-1.656;2023-02-20T16:46:10;18.50;82.10
26964;DHT22;14521;48.148;-1.656;2023-02-20T16:49:32;18.50;82.20
26964;DHT22;14521;48.148;-1.656;2023-02-20T16:52:59;18.50;82.20
26964;DHT22;14521;48.148;-1.656;2023-02-20T16:56:27;18.50;82.30
26964;DHT22;14521;48.148;-1.656;2023-02-20T16:59:55;18.40;82.50
26964;DHT22;14521;48.148;-1.656;2023-02-20T17:03:18;18.40;82.50
26964;DHT22;14521;48.148;-1.656;2023-02-20T17:06:40;18.50;83.40
26964;DHT22;14521;48.148;-1.656;2023-02-20T17:10:07;18.40;82.40
26964;DHT22;14521;48.148;-1.656;2023-02-20T17:13:29;18.50;82.40
26964;DHT22;14521;48.148;-1.656;2023-02-20T17:16:51;18.50;82.60
26964;DHT22;14521;48.148;-1.656;2023-02-20T17:20:17;18.40;82.60
26964;DHT22;14521;48.148;-1.656;2023-02-20T17:23:39;18.50;83.10
26964;DHT22;14521;48.148;-1.656;2023-02-20T17:27:02;18.50;82.60
26964;DHT22;14521;48.148;-1.656;2023-02-20T17:30:24;18.60;82.50
26964;DHT22;14521;48.148;-1.656;2023-02-20T17:33:47;18.60;82.90
26964;DHT22;14521;48.148;-1.656;2023-02-20T17:37:09;18.60;82.60
26964;DHT22;14521;48.148;-1.656;2023-02-20T17:40:32;18.60;82.80
26964;DHT22;14521;48.148;-1.656;2023-02-20T17:43:54;18.60;82.90
26964;DHT22;14521;48.148;-1.656;2023-02-20T17:47:16;18.70;82.50
26964;DHT22;14521;48.148;-1.656;2023-02-20T17:50:39;18.70;82.80
26964;DHT22;14521;48.148;-1.656;2023-02-20T17:54:02;18.80;83.00
26964;DHT22;14521;48.148;-1.656;2023-02-20T17:57:25;18.90;82.00
26964;DHT22;14521;48.148;-1.656;2023-02-20T18:00:49;18.80;81.70
26964;DHT22;14521;48.148;-1.656;2023-02-20T18:04:11;18.80;83.00
26964;DHT22;14521;48.148;-1.656;2023-02-20T18:07:34;18.70;83.40
26964;DHT22;14521;48.148;-1.656;2023-02-20T18:10:56;18.70;84.10
26964;DHT22;14521;48.148;-1.656;2023-02-20T18:14:19;18.80;84.30
26964;DHT22;14521;48.148;-1.656;2023-02-20T18:17:41;18.90;84.80
26964;DHT22;14521;48.148;-1.656;2023-02-20T18:21:04;18.90;85.30
26964;DHT22;14521;48.148;-1.656;2023-02-20T18:24:26;19.00;85.80
26964;DHT22;14521;48.148;-1.656;2023-02-20T18:27:51;19.00;84.60
26964;DHT22;14521;48.148;-1.656;2023-02-20T18:31:14;18.90;85.10
26964;DHT22;14521;48.148;-1.656;2023-02-20T18:34:39;18.90;85.60
26964;DHT22;14521;48.148;-1.656;2023-02-20T18:38:01;18.90;84.30
26964;DHT22;14521;48.148;-1.656;2023-02-20T18:41:24;18.90;84.00
26964;DHT22;14521;48.148;-1.656;2023-02-20T18:44:47;18.90;84.10
26964;DHT22;14521;48.148;-1.656;2023-02-20T18:48:10;18.90;84.20
26964;DHT22;14521;48.148;-1.656;2023-02-20T18:51:35;18.90;87.30
26964;DHT22;14521;48.148;-1.656;2023-02-20T18:54:58;19.00;85.10
26964;DHT22;14521;48.148;-1.656;2023-02-20T18:58:20;18.90;86.80
26964;DHT22;14521;48.148;-1.656;2023-02-20T19:01:43;19.00;88.20
26964;DHT22;14521;48.148;-1.656;2023-02-20T19:05:06;19.00;87.40
26964;DHT22;14521;48.148;-1.656;2023-02-20T19:08:28;19.00;87.50
26964;DHT22;14521;48.148;-1.656;2023-02-20T19:11:53;19.00;87.40
26964;DHT22;14521;48.148;-1.656;2023-02-20T19:15:16;19.00;87.40
26964;DHT22;14521;48.148;-1.656;2023-02-20T19:18:39;19.00;87.60
26964;DHT22;14521;48.148;-1.656;2023-02-20T19:22:11;19.00;87.30
26964;DHT22;14521;48.148;-1.656;2023-02-20T19:25:33;18.90;88.70
26964;DHT22;14521;48.148;-1.656;2023-02-20T19:28:56;19.00;88.40
26964;DHT22;14521;48.148;-1.656;2023-02-20T19:32:18;19.00;87.40
26964;DHT22;14521;48.148;-1.656;2023-02-20T19:35:41;19.00;86.70
26964;DHT22;14521;48.148;-1.656;2023-02-20T19:39:03;19.00;87.10
26964;DHT22;14521;48.148;-1.656;2023-02-20T19:42:25;19.00;87.10
26964;DHT22;14521;48.148;-1.656;2023-02-20T19:45:49;19.00;87.30
26964;DHT22;14521;48.148;-1.656;2023-02-20T19:49:12;19.00;88.80
26964;DHT22;14521;48.148;-1.656;2023-02-20T19:52:34;19.00;90.20
26964;DHT22;14521;48.148;-1.656;2023-02-20T19:55:57;19.00;88.70
26964;DHT22;14521;48.148;-1.656;2023-02-20T19:59:19;19.10;90.10
26964;DHT22;14521;48.148;-1.656;2023-02-20T20:02:42;19.10;90.30
26964;DHT22;14521;48.148;-1.656;2023-02-20T20:06:07;19.00;88.70
26964;DHT22;14521;48.148;-1.656;2023-02-20T20:09:30;19.10;89.50
26964;DHT22;14521;48.148;-1.656;2023-02-20T20:12:59;19.10;88.50
26964;DHT22;14521;48.148;-1.656;2023-02-20T20:16:23;19.10;89.00
26964;DHT22;14521;48.148;-1.656;2023-02-20T20:19:45;19.10;88.10
26964;DHT22;14521;48.148;-1.656;2023-02-20T20:23:20;19.00;87.10
26964;DHT22;14521;48.148;-1.656;2023-02-20T20:26:42;18.80;89.00
26964;DHT22;14521;48.148;-1.656;2023-02-20T20:30:07;18.70;90.00
26964;DHT22;14521;48.148;-1.656;2023-02-20T20:33:30;18.60;90.40
26964;DHT22;14521;48.148;-1.656;2023-02-20T20:36:53;18.60;90.30
26964;DHT22;14521;48.148;-1.656;2023-02-20T20:40:15;18.50;90.10
26964;DHT22;14521;48.148;-1.656;2023-02-20T20:43:37;18.50;90.10
26964;DHT22;14521;48.148;-1.656;2023-02-20T20:47:03;18.50;90.30
26964;DHT22;14521;48.148;-1.656;2023-02-20T20:50:26;18.50;90.40
26964;DHT22;14521;48.148;-1.656;2023-02-20T20:53:50;18.40;90.20
26964;DHT22;14521;48.148;-1.656;2023-02-20T20:57:12;18.40;90.00
26964;DHT22;14521;48.148;-1.656;2023-02-20T21:00:35;18.40;90.00
26964;DHT22;14521;48.148;-1.656;2023-02-20T21:03:57;18.50;90.00
26964;DHT22;14521;48.148;-1.656;2023-02-20T21:07:20;18.40;90.20
26964;DHT22;14521;48.148;-1.656;2023-02-20T21:10:42;18.40;90.20
26964;DHT22;14521;48.148;-1.656;2023-02-20T21:14:05;18.50;90.40
26964;DHT22;14521;48.148;-1.656;2023-02-20T21:17:27;18.40;90.50
26964;DHT22;14521;48.148;-1.656;2023-02-20T21:20:49;18.50;90.30
26964;DHT22;14521;48.148;-1.656;2023-02-20T21:24:12;18.50;90.30
26964;DHT22;14521;48.148;-1.656;2023-02-20T21:27:34;18.40;90.40
26964;DHT22;14521;48.148;-1.656;2023-02-20T21:30:56;18.50;90.30
26964;DHT22;14521;48.148;-1.656;2023-02-20T21:34:19;18.50;90.20
26964;DHT22;14521;48.148;-1.656;2023-02-20T21:37:41;18.50;90.00
26964;DHT22;14521;48.148;-1.656;2023-02-20T21:41:04;18.50;89.90
26964;DHT22;14521;48.148;-1.656;2023-02-20T21:44:26;18.50;89.80
26964;DHT22;14521;48.148;-1.656;2023-02-20T21:47:49;18.40;89.60
26964;DHT22;14521;48.148;-1.656;2023-02-20T21:51:11;18.50;89.60
26964;DHT22;14521;48.148;-1.656;2023-02-20T21:54:33;18.50;89.50
26964;DHT22;14521;48.148;-1.656;2023-02-20T21:57:56;18.40;89.10
26964;DHT22;14521;48.148;-1.656;2023-02-20T22:01:18;18.50;89.30
26964;DHT22;14521;48.148;-1.656;2023-02-20T22:04:41;18.40;89.10
26964;DHT22;14521;48.148;-1.656;2023-02-20T22:08:03;18.30;88.90
26964;DHT22;14521;48.148;-1.656;2023-02-20T22:11:44;18.40;88.80
26964;DHT22;14521;48.148;-1.656;2023-02-20T22:15:24;18.40;88.80
26964;DHT22;14521;48.148;-1.656;2023-02-20T22:19:05;18.40;88.30
26964;DHT22;14521;48.148;-1.656;2023-02-20T22:22:46;18.30;88.40
26964;DHT22;14521;48.148;-1.656;2023-02-20T22:26:27;18.30;88.30
26964;DHT22;14521;48.148;-1.656;2023-02-20T22:30:08;18.30;88.30
26964;DHT22;14521;48.148;-1.656;2023-02-20T22:33:49;18.20;88.10
26964;DHT22;14521;48.148;-1.656;2023-02-20T22:37:30;18.20;87.90
26964;DHT22;14521;48.148;-1.656;2023-02-20T22:41:19;18.20;87.90
26964;DHT22;14521;48.148;-1.656;2023-02-20T22:45:01;18.20;87.90
26964;DHT22;14521;48.148;-1.656;2023-02-20T22:48:41;18.20;87.60
26964;DHT22;14521;48.148;-1.656;2023-02-20T22:52:22;18.10;87.40
26964;DHT22;14521;48.148;-1.656;2023-02-20T22:56:03;18.10;87.10
26964;DHT22;14521;48.148;-1.656;2023-02-20T22:59:44;18.10;87.00
26964;DHT22;14521;48.148;-1.656;2023-02-20T23:03:25;18.10;87.00
26964;DHT22;14521;48.148;-1.656;2023-02-20T23:07:06;18.10;86.80
26964;DHT22;14521;48.148;-1.656;2023-02-20T23:10:47;18.10;87.50
26964;DHT22;14521;48.148;-1.656;2023-02-20T23:14:27;18.00;86.50
26964;DHT22;14521;48.148;-1.656;2023-02-20T23:18:08;18.10;86.60
26964;DHT22;14521;48.148;-1.656;2023-02-20T23:21:49;18.00;86.50
26964;DHT22;14521;48.148;-1.656;2023-02-20T23:25:30;18.00;86.30